createdAt,value
2023-04-06T00:00:30.024Z,1017.21
2023-04-06T00:01:29.990Z,1017.22
2023-04-06T00:02:30.054Z,1017.22
2023-04-06T00:03:30.076Z,1017.15
2023-04-06T00:04:29.984Z,1017.15
2023-04-06T00:05:29.977Z,1017.08
2023-04-06T00:06:29.978Z,1017.14
2023-04-06T00:07:29.965Z,1017.13
2023-04-06T00:08:29.975Z,1017.13
2023-04-06T00:09:29.956Z,1017.12
2023-04-06T00:10:30.280Z,1017.07
2023-04-06T00:11:29.952Z,1017.05
2023-04-06T00:12:29.958Z,1017.11
2023-04-06T00:13:30.271Z,1017.09
2023-04-06T00:14:29.951Z,1017.07
2023-04-06T00:15:29.933Z,1017.05
2023-04-06T00:16:30.649Z,1017.04
2023-04-06T00:17:29.934Z,1017.05
2023-04-06T00:18:29.926Z,1017.01
2023-04-06T00:19:29.920Z,1017.05
2023-04-06T00:20:29.916Z,1017.03
2023-04-06T00:21:29.931Z,1017.02
2023-04-06T00:22:29.911Z,1017.06
2023-04-06T00:23:29.896Z,1016.99
2023-04-06T00:24:29.897Z,1017.02
2023-04-06T00:25:29.899Z,1017.04
2023-04-06T00:26:29.888Z,1017.03
2023-04-06T00:27:29.887Z,1017.07
2023-04-06T00:28:29.883Z,1017.02
2023-04-06T00:29:29.878Z,1017.01
2023-04-06T00:30:29.878Z,1017.04
2023-04-06T00:31:29.913Z,1017.04
2023-04-06T00:32:29.932Z,1017.03
2023-04-06T00:33:29.864Z,1017.06
2023-04-06T00:34:29.869Z,1017.06
2023-04-06T00:35:29.856Z,1017.03
2023-04-06T00:36:29.857Z,1017.01
2023-04-06T00:37:29.846Z,1017.00
2023-04-06T00:38:29.858Z,1017.04
2023-04-06T00:39:29.843Z,1017.02
2023-04-06T00:40:29.863Z,1017.03
2023-04-06T00:41:29.831Z,1016.99
2023-04-06T00:42:29.829Z,1016.98
2023-04-06T00:43:29.822Z,1017.00
2023-04-06T00:44:29.820Z,1017.01
2023-04-06T00:45:29.821Z,1016.99
2023-04-06T00:46:30.030Z,1016.99
2023-04-06T00:47:29.884Z,1016.96
2023-04-06T00:48:29.836Z,1016.95
2023-04-06T00:49:29.800Z,1016.98
2023-04-06T00:50:29.798Z,1016.98
2023-04-06T00:51:29.789Z,1016.99
2023-04-06T00:52:29.808Z,1016.99
2023-04-06T00:53:29.786Z,1016.98
2023-04-06T00:54:29.785Z,1016.99
2023-04-06T00:55:29.776Z,1016.98
2023-04-06T00:56:29.775Z,1016.95
2023-04-06T00:57:29.781Z,1016.95
2023-04-06T00:58:29.764Z,1016.99
2023-04-06T00:59:29.805Z,1016.97
2023-04-06T01:00:29.759Z,1016.95
2023-04-06T01:01:29.864Z,1016.95
2023-04-06T01:02:29.785Z,1016.93
2023-04-06T01:03:29.748Z,1016.90
2023-04-06T01:04:29.761Z,1016.89
2023-04-06T01:05:29.779Z,1016.86
2023-04-06T01:06:29.729Z,1016.93
2023-04-06T01:07:29.720Z,1016.90
2023-04-06T01:08:29.721Z,1016.93
2023-04-06T01:09:29.738Z,1016.87
2023-04-06T01:10:29.720Z,1016.90
2023-04-06T01:11:29.708Z,1016.90
2023-04-06T01:12:29.710Z,1016.93
2023-04-06T01:13:29.707Z,1016.87
2023-04-06T01:14:29.702Z,1016.93
2023-04-06T01:15:29.695Z,1016.85
2023-04-06T01:16:29.761Z,1016.91
2023-04-06T01:17:29.763Z,1016.84
2023-04-06T01:18:29.684Z,1016.84
2023-04-06T01:19:29.684Z,1016.84
2023-04-06T01:20:29.819Z,1016.86
2023-04-06T01:21:29.669Z,1016.84
2023-04-06T01:22:29.668Z,1016.87
2023-04-06T01:23:29.671Z,1016.89
2023-04-06T01:24:29.661Z,1016.87
2023-04-06T01:25:29.652Z,1016.90
2023-04-06T01:26:29.653Z,1016.87
2023-04-06T01:27:29.645Z,1016.88
2023-04-06T01:28:29.643Z,1016.88
2023-04-06T01:29:29.646Z,1016.91
2023-04-06T01:30:29.638Z,1016.90
2023-04-06T01:31:29.669Z,1016.90
2023-04-06T01:32:29.635Z,1016.90
2023-04-06T01:33:29.627Z,1016.94
2023-04-06T01:34:29.619Z,1016.96
2023-04-06T01:35:29.656Z,1016.95
2023-04-06T01:36:29.630Z,1016.95
2023-04-06T01:37:29.602Z,1016.90
2023-04-06T01:38:29.604Z,1016.94
2023-04-06T01:39:29.596Z,1016.94
2023-04-06T01:40:29.588Z,1016.93
2023-04-06T01:41:29.586Z,1016.92
2023-04-06T01:42:29.591Z,1016.92
2023-04-06T01:43:29.580Z,1016.93
2023-04-06T01:44:29.573Z,1016.93
2023-04-06T01:45:29.583Z,1016.95
2023-04-06T01:46:29.623Z,1016.93
2023-04-06T01:47:29.624Z,1016.89
2023-04-06T01:48:29.553Z,1016.91
2023-04-06T01:49:29.558Z,1016.88
2023-04-06T01:50:29.546Z,1016.92
2023-04-06T01:51:29.549Z,1016.92
2023-04-06T01:52:29.570Z,1016.89
2023-04-06T01:53:29.537Z,1016.88
2023-04-06T01:54:29.530Z,1016.88
2023-04-06T01:55:29.544Z,1016.88
2023-04-06T01:56:29.519Z,1016.87
2023-04-06T01:57:29.527Z,1016.87
2023-04-06T01:58:29.522Z,1016.92
2023-04-06T01:59:29.544Z,1016.87
2023-04-06T02:00:29.507Z,1016.86
2023-04-06T02:01:29.545Z,1016.86
2023-04-06T02:02:29.758Z,1016.82
2023-04-06T02:03:29.506Z,1016.82
2023-04-06T02:04:29.486Z,1016.88
2023-04-06T02:05:29.489Z,1016.85
2023-04-06T02:06:29.481Z,1016.87
2023-04-06T02:07:29.482Z,1016.87
2023-04-06T02:08:29.498Z,1016.88
2023-04-06T02:09:29.467Z,1016.88
2023-04-06T02:10:29.662Z,1016.93
2023-04-06T02:11:29.470Z,1016.86
2023-04-06T02:12:29.453Z,1016.89
2023-04-06T02:13:29.450Z,1016.93
2023-04-06T02:14:29.443Z,1016.89
2023-04-06T02:15:29.435Z,1016.88
2023-04-06T02:16:29.466Z,1016.86
2023-04-06T02:17:29.485Z,1016.90
2023-04-06T02:18:29.445Z,1016.90
2023-04-06T02:19:29.422Z,1016.89
2023-04-06T02:20:29.419Z,1016.91
2023-04-06T02:21:29.412Z,1016.93
2023-04-06T02:22:29.407Z,1016.88
2023-04-06T02:23:29.407Z,1016.88
2023-04-06T02:24:29.421Z,1016.86
2023-04-06T02:25:29.397Z,1016.87
2023-04-06T02:26:29.398Z,1016.89
2023-04-06T02:27:29.392Z,1016.87
2023-04-06T02:28:29.400Z,1016.89
2023-04-06T02:29:29.386Z,1016.92
2023-04-06T02:30:29.374Z,1016.88
2023-04-06T02:31:29.437Z,1016.91
2023-04-06T02:32:29.398Z,1016.86
2023-04-06T02:33:29.362Z,1016.90
2023-04-06T02:34:29.359Z,1016.88
2023-04-06T02:35:29.410Z,1016.88
2023-04-06T02:36:29.358Z,1016.87
2023-04-06T02:37:29.349Z,1016.86
2023-04-06T02:38:29.342Z,1016.87
2023-04-06T02:39:29.333Z,1016.86
2023-04-06T02:40:29.352Z,1016.87
2023-04-06T02:41:29.328Z,1016.84
2023-04-06T02:42:29.315Z,1016.82
2023-04-06T02:43:29.316Z,1016.91
2023-04-06T02:44:29.305Z,1016.88
2023-04-06T02:45:29.306Z,1016.87
2023-04-06T02:46:29.312Z,1016.90
2023-04-06T02:47:29.340Z,1016.91
2023-04-06T02:48:29.293Z,1016.88
2023-04-06T02:49:29.291Z,1016.89
2023-04-06T02:50:29.282Z,1016.88
2023-04-06T02:51:29.277Z,1016.97
2023-04-06T02:52:29.275Z,1016.91
2023-04-06T02:53:29.645Z,1016.91
2023-04-06T02:54:29.271Z,1016.88
2023-04-06T02:55:29.283Z,1016.89
2023-04-06T02:56:29.299Z,1016.85
2023-04-06T02:57:29.264Z,1016.84
2023-04-06T02:58:29.244Z,1016.88
2023-04-06T02:59:29.269Z,1016.88
2023-04-06T03:00:29.239Z,1016.89
2023-04-06T03:01:29.280Z,1016.87
2023-04-06T03:02:29.323Z,1016.91
2023-04-06T03:03:29.354Z,1016.88
2023-04-06T03:04:29.215Z,1016.91
2023-04-06T03:05:29.213Z,1016.87
2023-04-06T03:06:29.212Z,1016.90
2023-04-06T03:07:29.211Z,1016.88
2023-04-06T03:08:29.198Z,1016.87
2023-04-06T03:09:29.203Z,1016.89
2023-04-06T03:10:29.188Z,1016.91
2023-04-06T03:11:29.188Z,1016.89
2023-04-06T03:12:29.205Z,1016.89
2023-04-06T03:13:29.193Z,1016.90
2023-04-06T03:14:29.187Z,1016.89
2023-04-06T03:15:29.205Z,1016.89
2023-04-06T03:16:29.164Z,1016.89
2023-04-06T03:17:29.186Z,1016.90
2023-04-06T03:18:29.160Z,1016.87
2023-04-06T03:19:29.148Z,1016.87
2023-04-06T03:20:29.146Z,1016.89
2023-04-06T03:21:29.145Z,1016.86
2023-04-06T03:22:29.129Z,1016.86
2023-04-06T03:23:29.128Z,1016.85
2023-04-06T03:24:29.118Z,1016.85
2023-04-06T03:25:29.122Z,1016.86
2023-04-06T03:26:29.109Z,1016.85
2023-04-06T03:27:29.109Z,1016.87
2023-04-06T03:28:29.118Z,1016.89
2023-04-06T03:29:29.098Z,1016.90
2023-04-06T03:30:29.092Z,1016.86
2023-04-06T03:31:29.134Z,1016.93
2023-04-06T03:32:29.155Z,1016.90
2023-04-06T03:33:29.081Z,1016.92
2023-04-06T03:34:29.075Z,1016.90
2023-04-06T03:35:29.083Z,1016.93
2023-04-06T03:36:29.066Z,1016.94
2023-04-06T03:37:29.059Z,1016.99
2023-04-06T03:38:29.050Z,1016.98
2023-04-06T03:39:29.051Z,1016.95
2023-04-06T03:40:29.074Z,1017.00
2023-04-06T03:41:29.054Z,1016.96
2023-04-06T03:42:29.039Z,1016.98
2023-04-06T03:43:29.040Z,1016.99
2023-04-06T03:44:29.044Z,1017.03
2023-04-06T03:45:29.022Z,1017.04
2023-04-06T03:46:29.060Z,1017.02
2023-04-06T03:47:29.035Z,1017.04
2023-04-06T03:48:29.004Z,1017.04
2023-04-06T03:49:29.006Z,1017.10
2023-04-06T03:50:28.995Z,1017.06
2023-04-06T03:51:29.001Z,1017.10
2023-04-06T03:52:28.985Z,1017.11
2023-04-06T03:53:28.991Z,1017.07
2023-04-06T03:54:28.970Z,1017.12
2023-04-06T03:55:28.976Z,1017.08
2023-04-06T03:56:28.981Z,1017.17
2023-04-06T03:57:28.968Z,1017.19
2023-04-06T03:58:28.954Z,1017.16
2023-04-06T03:59:28.970Z,1017.17
2023-04-06T04:00:28.970Z,1017.15
2023-04-06T04:01:28.941Z,1017.23
2023-04-06T04:02:29.237Z,1017.16
2023-04-06T04:03:29.058Z,1017.14
2023-04-06T04:04:28.927Z,1017.22
2023-04-06T04:05:29.036Z,1017.18
2023-04-06T04:06:28.937Z,1017.24
2023-04-06T04:07:28.923Z,1017.20
2023-04-06T04:08:28.908Z,1017.25
2023-04-06T04:09:29.878Z,1017.21
2023-04-06T04:10:28.895Z,1017.23
2023-04-06T04:11:28.894Z,1017.26
2023-04-06T04:12:28.889Z,1017.25
2023-04-06T04:13:28.893Z,1017.24
2023-04-06T04:14:28.881Z,1017.23
2023-04-06T04:15:28.874Z,1017.23
2023-04-06T04:16:28.934Z,1017.29
2023-04-06T04:17:28.887Z,1017.27
2023-04-06T04:18:28.852Z,1017.30
2023-04-06T04:19:28.855Z,1017.29
2023-04-06T04:20:28.845Z,1017.29
2023-04-06T04:21:28.849Z,1017.25
2023-04-06T04:22:28.852Z,1017.27
2023-04-06T04:23:28.831Z,1017.27
2023-04-06T04:24:28.827Z,1017.31
2023-04-06T04:25:28.825Z,1017.30
2023-04-06T04:26:28.811Z,1017.32
2023-04-06T04:27:28.816Z,1017.33
2023-04-06T04:29:28.810Z,1017.33
2023-04-06T04:30:28.807Z,1017.34
2023-04-06T04:31:28.826Z,1017.32
2023-04-06T04:32:28.877Z,1017.32
2023-04-06T04:33:28.796Z,1017.30
2023-04-06T04:34:28.787Z,1017.34
2023-04-06T04:35:28.853Z,1017.33
2023-04-06T04:36:28.772Z,1017.36
2023-04-06T04:37:28.769Z,1017.34
2023-04-06T04:38:28.778Z,1017.38
2023-04-06T04:39:28.765Z,1017.34
2023-04-06T04:40:28.753Z,1017.33
2023-04-06T04:41:28.759Z,1017.32
2023-04-06T04:42:28.745Z,1017.31
2023-04-06T04:43:30.183Z,1017.34
2023-04-06T04:44:28.738Z,1017.34
2023-04-06T04:45:28.740Z,1017.29
2023-04-06T04:46:28.781Z,1017.34
2023-04-06T04:47:28.733Z,1017.28
2023-04-06T04:48:28.742Z,1017.31
2023-04-06T04:49:28.716Z,1017.27
2023-04-06T04:50:28.704Z,1017.29
2023-04-06T04:51:28.713Z,1017.29
2023-04-06T04:52:28.698Z,1017.28
2023-04-06T04:53:28.694Z,1017.32
2023-04-06T04:54:28.689Z,1017.28
2023-04-06T04:55:28.685Z,1017.31
2023-04-06T04:56:28.713Z,1017.29
2023-04-06T04:57:28.677Z,1017.32
2023-04-06T04:58:28.667Z,1017.32
2023-04-06T04:59:28.692Z,1017.32
2023-04-06T05:00:28.654Z,1017.35
2023-04-06T05:01:28.712Z,1017.32
2023-04-06T05:02:28.706Z,1017.32
2023-04-06T05:03:28.722Z,1017.38
2023-04-06T05:04:28.665Z,1017.35
2023-04-06T05:05:28.633Z,1017.37
2023-04-06T05:06:28.626Z,1017.38
2023-04-06T05:07:28.625Z,1017.38
2023-04-06T05:08:28.724Z,1017.36
2023-04-06T05:09:28.616Z,1017.36
2023-04-06T05:10:28.604Z,1017.38
2023-04-06T05:11:28.607Z,1017.36
2023-04-06T05:12:28.599Z,1017.38
2023-04-06T05:13:28.593Z,1017.39
2023-04-06T05:14:28.582Z,1017.40
2023-04-06T05:15:28.576Z,1017.44
2023-04-06T05:16:28.575Z,1017.39
2023-04-06T05:17:28.634Z,1017.44
2023-04-06T05:18:28.560Z,1017.42
2023-04-06T05:19:28.563Z,1017.46
2023-04-06T05:20:28.573Z,1017.43
2023-04-06T05:21:28.559Z,1017.46
2023-04-06T05:22:28.550Z,1017.47
2023-04-06T05:23:28.548Z,1017.44
2023-04-06T05:24:28.551Z,1017.43
2023-04-06T05:25:28.554Z,1017.47
2023-04-06T05:26:28.518Z,1017.46
2023-04-06T05:27:28.529Z,1017.47
2023-04-06T05:28:28.510Z,1017.46
2023-04-06T05:29:28.503Z,1017.49
2023-04-06T05:30:28.499Z,1017.49
2023-04-06T05:31:28.552Z,1017.54
2023-04-06T05:32:28.526Z,1017.51
2023-04-06T05:33:28.511Z,1017.51
2023-04-06T05:34:28.477Z,1017.49
2023-04-06T05:35:28.502Z,1017.52
2023-04-06T05:36:28.493Z,1017.53
2023-04-06T05:37:28.463Z,1017.49
2023-04-06T05:38:28.447Z,1017.52
2023-04-06T05:39:28.457Z,1017.53
2023-04-06T05:40:28.455Z,1017.55
2023-04-06T05:41:28.434Z,1017.56
2023-04-06T05:42:28.431Z,1017.53
2023-04-06T05:43:28.437Z,1017.58
2023-04-06T05:44:28.416Z,1017.55
2023-04-06T05:45:28.411Z,1017.53
2023-04-06T05:46:28.468Z,1017.52
2023-04-06T05:47:28.426Z,1017.55
2023-04-06T05:48:28.397Z,1017.54
2023-04-06T05:49:28.390Z,1017.57
2023-04-06T05:50:28.392Z,1017.55
2023-04-06T05:51:28.424Z,1017.52
2023-04-06T05:52:28.392Z,1017.56
2023-04-06T05:53:28.367Z,1017.60
2023-04-06T05:54:28.358Z,1017.57
2023-04-06T05:55:28.353Z,1017.58
2023-04-06T05:56:28.350Z,1017.62
2023-04-06T05:57:28.343Z,1017.61
2023-04-06T05:58:28.336Z,1017.63
2023-04-06T05:59:28.386Z,1017.60
2023-04-06T06:00:28.344Z,1017.60
2023-04-06T06:01:28.322Z,1017.60
2023-04-06T06:02:28.427Z,1017.62
2023-04-06T06:03:28.320Z,1017.57
2023-04-06T06:04:28.326Z,1017.57
2023-04-06T06:05:28.353Z,1017.65
2023-04-06T06:06:28.296Z,1017.61
2023-04-06T06:07:28.287Z,1017.60
2023-04-06T06:08:28.306Z,1017.62
2023-04-06T06:09:28.279Z,1017.60
2023-04-06T06:10:28.394Z,1017.61
2023-04-06T06:11:28.277Z,1017.62
2023-04-06T06:12:28.271Z,1017.63
2023-04-06T06:13:28.253Z,1017.64
2023-04-06T06:14:28.257Z,1017.63
2023-04-06T06:15:28.263Z,1017.66
2023-04-06T06:16:28.261Z,1017.65
2023-04-06T06:17:28.275Z,1017.65
2023-04-06T06:18:28.244Z,1017.64
2023-04-06T06:19:28.230Z,1017.67
2023-04-06T06:20:28.314Z,1017.66
2023-04-06T06:21:28.221Z,1017.63
2023-04-06T06:22:28.212Z,1017.62
2023-04-06T06:23:28.203Z,1017.63
2023-04-06T06:24:29.604Z,1017.65
2023-04-06T06:25:28.207Z,1017.63
2023-04-06T06:26:28.195Z,1017.62
2023-04-06T06:27:28.186Z,1017.62
2023-04-06T06:28:28.184Z,1017.67
2023-04-06T06:29:28.173Z,1017.69
2023-04-06T06:30:28.248Z,1017.71
2023-04-06T06:31:28.216Z,1017.70
2023-04-06T06:32:28.218Z,1017.68
2023-04-06T06:33:28.165Z,1017.72
2023-04-06T06:34:28.160Z,1017.76
2023-04-06T06:35:28.186Z,1017.73
2023-04-06T06:36:28.145Z,1017.74
2023-04-06T06:37:29.271Z,1017.78
2023-04-06T06:38:28.151Z,1017.80
2023-04-06T06:39:28.149Z,1017.74
2023-04-06T06:40:28.369Z,1017.77
2023-04-06T06:41:28.450Z,1017.79
2023-04-06T06:42:28.118Z,1017.76
2023-04-06T06:43:28.110Z,1017.80
2023-04-06T06:44:28.111Z,1017.79
2023-04-06T06:45:28.219Z,1017.82
2023-04-06T06:46:28.108Z,1017.80
2023-04-06T06:47:28.155Z,1017.87
2023-04-06T06:48:28.096Z,1017.83
2023-04-06T06:49:28.087Z,1017.84
2023-04-06T06:50:28.114Z,1017.88
2023-04-06T06:51:28.098Z,1017.91
2023-04-06T06:52:28.090Z,1017.93
2023-04-06T06:53:28.076Z,1017.90
2023-04-06T06:54:28.089Z,1017.90
2023-04-06T06:55:28.075Z,1017.94
2023-04-06T06:56:28.133Z,1017.92
2023-04-06T06:57:28.060Z,1017.95
2023-04-06T06:58:28.088Z,1017.96
2023-04-06T06:59:28.087Z,1018.02
2023-04-06T07:00:28.062Z,1017.95
2023-04-06T07:01:28.092Z,1017.96
2023-04-06T07:02:28.085Z,1017.99
2023-04-06T07:03:28.082Z,1018.01
2023-04-06T07:04:28.091Z,1018.01
2023-04-06T07:05:29.160Z,1017.97
2023-04-06T07:06:28.038Z,1017.98
2023-04-06T07:07:28.030Z,1017.94
2023-04-06T07:08:28.029Z,1017.95
2023-04-06T07:09:28.027Z,1017.94
2023-04-06T07:10:28.036Z,1017.94
2023-04-06T07:11:28.053Z,1017.91
2023-04-06T07:12:28.034Z,1017.95
2023-04-06T07:13:28.025Z,1017.95
2023-04-06T07:14:28.019Z,1017.92
2023-04-06T07:15:28.010Z,1017.95
2023-04-06T07:16:28.079Z,1017.91
2023-04-06T07:17:28.012Z,1017.94
2023-04-06T07:18:27.997Z,1017.97
2023-04-06T07:19:27.998Z,1017.95
2023-04-06T07:20:27.999Z,1018.00
2023-04-06T07:21:27.994Z,1017.99
2023-04-06T07:22:27.988Z,1018.00
2023-04-06T07:23:31.562Z,1018.00
2023-04-06T07:24:27.984Z,1017.98
2023-04-06T07:25:28.030Z,1017.97
2023-04-06T07:26:27.988Z,1017.97
2023-04-06T07:27:27.977Z,1018.01
2023-04-06T07:28:28.046Z,1017.96
2023-04-06T07:29:27.982Z,1017.97
2023-04-06T07:30:27.992Z,1017.97
2023-04-06T07:31:28.016Z,1017.97
2023-04-06T07:32:28.035Z,1017.97
2023-04-06T07:33:27.978Z,1017.99
2023-04-06T07:34:28.008Z,1018.01
2023-04-06T07:35:27.977Z,1018.03
2023-04-06T07:36:27.972Z,1018.02
2023-04-06T07:37:27.971Z,1018.07
2023-04-06T07:38:27.971Z,1018.06
2023-04-06T07:39:27.966Z,1017.96
2023-04-06T07:40:27.972Z,1018.04
2023-04-06T07:41:27.964Z,1018.03
2023-04-06T07:42:27.965Z,1018.01
2023-04-06T07:43:27.961Z,1018.04
2023-04-06T07:44:27.986Z,1018.08
2023-04-06T07:45:27.984Z,1018.15
2023-04-06T07:46:27.997Z,1018.11
2023-04-06T07:47:27.971Z,1018.18
2023-04-06T07:48:27.967Z,1019.30
2023-04-06T07:49:27.965Z,1023.51
2023-04-06T07:50:27.992Z,1025.95
2023-04-06T07:51:27.961Z,1026.62
2023-04-06T07:52:27.974Z,1026.85
2023-04-06T07:53:27.964Z,1026.43
2023-04-06T07:54:27.969Z,1026.94
2023-04-06T07:55:27.964Z,1028.02
2023-04-06T07:56:27.975Z,1028.44
2023-04-06T07:57:27.963Z,1028.88
2023-04-06T07:58:27.973Z,1029.43
2023-04-06T07:59:28.010Z,1029.92
2023-04-06T08:00:27.996Z,1030.41
2023-04-06T08:01:27.966Z,1030.89
2023-04-06T08:02:28.043Z,1031.27
2023-04-06T08:03:28.091Z,1031.31
2023-04-06T08:04:27.987Z,1031.33
2023-04-06T08:05:27.976Z,1032.15
2023-04-06T08:06:27.967Z,1033.17
2023-04-06T08:07:27.969Z,1034.20
2023-04-06T08:08:27.974Z,1034.30
2023-04-06T08:09:27.977Z,1034.08
2023-04-06T08:10:27.976Z,1034.31
2023-04-06T08:11:27.981Z,1033.82
2023-04-06T08:12:27.975Z,1033.30
2023-04-06T08:13:27.975Z,1032.86
2023-04-06T08:14:28.013Z,1033.52
2023-04-06T08:15:28.033Z,1033.93
2023-04-06T08:16:28.005Z,1034.72
2023-04-06T08:17:27.999Z,1034.87
2023-04-06T08:18:27.989Z,1034.86
2023-04-06T08:19:27.986Z,1035.19
2023-04-06T08:20:28.028Z,1035.80
2023-04-06T08:21:28.010Z,1035.57
2023-04-06T08:22:28.003Z,1035.41
2023-04-06T08:23:27.998Z,1035.19
2023-04-06T08:24:28.017Z,1034.50
2023-04-06T08:25:28.004Z,1034.54
2023-04-06T08:26:28.013Z,1034.72
2023-04-06T08:27:28.017Z,1033.43
2023-04-06T08:28:28.012Z,1031.97
2023-04-06T08:29:28.008Z,1032.58
2023-04-06T08:30:28.020Z,1034.18
2023-04-06T08:31:28.072Z,1034.22
2023-04-06T08:32:28.066Z,1032.79
2023-04-06T08:33:28.026Z,1031.93
2023-04-06T08:34:28.031Z,1031.54
2023-04-06T08:35:28.074Z,1030.85
2023-04-06T08:36:28.040Z,1030.13
2023-04-06T08:37:28.046Z,1029.72
2023-04-06T08:38:28.060Z,1027.74
2023-04-06T08:39:28.050Z,1026.19
2023-04-06T08:40:28.071Z,1026.53
2023-04-06T08:41:28.061Z,1027.15
2023-04-06T08:42:28.068Z,1026.86
2023-04-06T08:43:28.091Z,1025.70
2023-04-06T08:44:28.145Z,1025.03
2023-04-06T08:45:28.087Z,1025.83
2023-04-06T08:46:28.107Z,1025.09
2023-04-06T08:47:28.114Z,1023.35
2023-04-06T08:48:28.143Z,1023.66
2023-04-06T08:49:28.112Z,1024.51
2023-04-06T08:50:28.125Z,1024.94
2023-04-06T08:51:28.130Z,1025.32
2023-04-06T08:52:28.151Z,1025.54
2023-04-06T08:53:28.147Z,1024.23
2023-04-06T08:54:28.147Z,1023.49
2023-04-06T08:55:28.151Z,1023.07
2023-04-06T08:56:28.167Z,1022.28
2023-04-06T08:57:28.166Z,1022.36
2023-04-06T08:58:37.758Z,1020.18
2023-04-06T08:59:28.281Z,1018.26
2023-04-06T09:00:28.197Z,1018.29
2023-04-06T09:01:28.270Z,1021.03
2023-04-06T09:02:28.326Z,1020.77
2023-04-06T09:03:28.416Z,1020.93
2023-04-06T09:04:28.365Z,1020.63
2023-04-06T09:05:28.236Z,1020.32
2023-04-06T09:06:28.267Z,1020.01
2023-04-06T09:07:28.248Z,1018.25
2023-04-06T09:08:28.260Z,1018.30
2023-04-06T09:09:28.264Z,1019.28
2023-04-06T09:10:28.286Z,1019.14
2023-04-06T09:11:28.285Z,1018.17
2023-04-06T09:12:28.308Z,1018.16
2023-04-06T09:13:28.320Z,1018.16
2023-04-06T09:14:28.307Z,1018.36
2023-04-06T09:15:28.314Z,1018.93
2023-04-06T09:16:28.383Z,1018.97
2023-04-06T09:17:28.384Z,1018.97
2023-04-06T09:18:28.337Z,1018.37
2023-04-06T09:19:28.337Z,1018.06
2023-04-06T09:20:28.396Z,1018.10
2023-04-06T09:21:28.361Z,1018.54
2023-04-06T09:22:28.369Z,1018.37
2023-04-06T09:23:28.450Z,1018.22
2023-04-06T09:24:28.379Z,1018.09
2023-04-06T09:25:28.393Z,1018.01
2023-04-06T09:26:28.399Z,1018.05
2023-04-06T09:27:28.404Z,1018.03
2023-04-06T09:28:28.423Z,1017.99
2023-04-06T09:29:28.425Z,1018.00
2023-04-06T09:30:28.435Z,1018.23
2023-04-06T09:31:28.455Z,1018.33
2023-04-06T09:32:28.478Z,1018.15
2023-04-06T09:33:28.426Z,1018.25
2023-04-06T09:34:28.437Z,1018.34
2023-04-06T09:35:28.573Z,1018.28
2023-04-06T09:36:28.459Z,1018.29
2023-04-06T09:37:28.443Z,1018.18
2023-04-06T09:38:28.452Z,1018.18
2023-04-06T09:39:28.467Z,1018.14
2023-04-06T09:40:28.476Z,1018.12
2023-04-06T09:41:28.458Z,1018.12
2023-04-06T09:42:28.465Z,1017.91
2023-04-06T09:43:28.468Z,1017.87
2023-04-06T09:44:28.472Z,1017.86
2023-04-06T09:45:28.483Z,1017.91
2023-04-06T09:46:28.517Z,1017.89
2023-04-06T09:47:29.704Z,1017.96
2023-04-06T09:48:29.661Z,1018.19
2023-04-06T09:49:28.489Z,1018.11
2023-04-06T09:50:28.500Z,1018.14
2023-04-06T09:51:28.492Z,1018.15
2023-04-06T09:52:28.525Z,1018.12
2023-04-06T09:53:28.500Z,1018.13
2023-04-06T09:54:28.504Z,1017.85
2023-04-06T09:55:28.505Z,1017.79
2023-04-06T09:56:28.545Z,1017.76
2023-04-06T09:57:28.508Z,1017.72
2023-04-06T09:58:28.520Z,1017.74
2023-04-06T09:59:28.579Z,1017.76
2023-04-06T10:00:28.564Z,1017.81
2023-04-06T10:01:28.570Z,1017.76
2023-04-06T10:02:28.705Z,1017.76
2023-04-06T10:03:28.631Z,1017.79
2023-04-06T10:04:28.517Z,1017.82
2023-04-06T10:05:28.519Z,1017.82
2023-04-06T10:06:28.553Z,1017.81
2023-04-06T10:07:28.528Z,1017.79
2023-04-06T10:08:30.914Z,1017.84
2023-04-06T10:09:28.520Z,1017.83
2023-04-06T10:10:28.535Z,1017.82
2023-04-06T10:11:28.524Z,1017.81
2023-04-06T10:12:28.522Z,1017.96
2023-04-06T10:13:28.534Z,1018.14
2023-04-06T10:14:28.530Z,1018.15
2023-04-06T10:15:28.536Z,1018.13
2023-04-06T10:16:28.553Z,1018.11
2023-04-06T10:17:28.577Z,1018.10
2023-04-06T10:18:28.536Z,1018.08
2023-04-06T10:19:28.547Z,1018.13
2023-04-06T10:20:28.531Z,1018.15
2023-04-06T10:21:28.542Z,1018.11
2023-04-06T10:22:28.532Z,1018.05
2023-04-06T10:23:28.541Z,1018.02
2023-04-06T10:24:28.557Z,1017.83
2023-04-06T10:25:28.547Z,1017.70
2023-04-06T10:26:28.544Z,1017.72
2023-04-06T10:27:28.548Z,1017.74
2023-04-06T10:28:28.536Z,1017.74
2023-04-06T10:29:28.568Z,1017.79
2023-04-06T10:30:28.544Z,1017.81
2023-04-06T10:31:28.747Z,1017.75
2023-04-06T10:32:28.564Z,1017.74
2023-04-06T10:33:28.566Z,1017.73
2023-04-06T10:34:28.569Z,1017.73
2023-04-06T10:35:28.549Z,1017.74
2023-04-06T10:36:28.574Z,1017.74
2023-04-06T10:37:28.572Z,1017.84
2023-04-06T10:38:28.556Z,1017.90
2023-04-06T10:39:28.558Z,1017.76
2023-04-06T10:40:28.590Z,1017.73
2023-04-06T10:41:28.559Z,1017.80
2023-04-06T10:42:28.559Z,1017.90
2023-04-06T10:43:28.621Z,1017.81
2023-04-06T10:44:28.559Z,1017.76
2023-04-06T10:45:28.613Z,1017.80
2023-04-06T10:46:28.580Z,1017.81
2023-04-06T10:47:28.594Z,1017.66
2023-04-06T10:48:28.577Z,1017.66
2023-04-06T10:49:28.578Z,1017.60
2023-04-06T10:50:28.563Z,1017.63
2023-04-06T10:51:28.589Z,1017.63
2023-04-06T10:52:28.562Z,1017.64
2023-04-06T10:53:28.568Z,1017.66
2023-04-06T10:54:28.592Z,1017.76
2023-04-06T10:55:28.564Z,1017.80
2023-04-06T10:56:28.596Z,1017.80
2023-04-06T10:57:28.563Z,1017.83
2023-04-06T10:58:28.592Z,1017.79
2023-04-06T10:59:28.601Z,1017.82
2023-04-06T11:00:39.351Z,1017.61
2023-04-06T11:01:28.622Z,1017.70
2023-04-06T11:02:28.606Z,1017.69
2023-04-06T11:03:28.580Z,1017.57
2023-04-06T11:04:28.579Z,1017.59
2023-04-06T11:05:28.585Z,1017.72
2023-04-06T11:06:28.563Z,1017.72
2023-04-06T11:07:28.571Z,1017.71
2023-04-06T11:08:28.590Z,1017.74
2023-04-06T11:09:28.567Z,1017.74
2023-04-06T11:10:28.566Z,1017.76
2023-04-06T11:11:28.571Z,1017.51
2023-04-06T11:12:28.586Z,1017.51
2023-04-06T11:13:28.573Z,1017.48
2023-04-06T11:14:28.572Z,1017.45
2023-04-06T11:15:28.595Z,1017.44
2023-04-06T11:16:28.595Z,1017.49
2023-04-06T11:17:28.636Z,1017.64
2023-04-06T11:18:28.571Z,1017.47
2023-04-06T11:19:28.572Z,1017.46
2023-04-06T11:20:28.592Z,1017.49
2023-04-06T11:21:28.580Z,1017.49
2023-04-06T11:22:28.570Z,1017.47
2023-04-06T11:23:28.580Z,1017.55
2023-04-06T11:24:28.572Z,1017.72
2023-04-06T11:25:28.572Z,1017.69
2023-04-06T11:26:28.575Z,1017.67
2023-04-06T11:27:28.580Z,1017.66
2023-04-06T11:28:28.604Z,1017.71
2023-04-06T11:29:28.596Z,1017.74
2023-04-06T11:30:28.578Z,1017.72
2023-04-06T11:31:28.611Z,1017.64
2023-04-06T11:32:28.603Z,1017.55
2023-04-06T11:33:28.582Z,1017.55
2023-04-06T11:34:28.583Z,1017.46
2023-04-06T11:35:28.591Z,1017.44
2023-04-06T11:36:29.371Z,1017.37
2023-04-06T11:37:28.616Z,1017.37
2023-04-06T11:38:28.588Z,1017.36
2023-04-06T11:39:28.588Z,1017.34
2023-04-06T11:40:28.591Z,1017.44
2023-04-06T11:41:28.594Z,1017.39
2023-04-06T11:42:28.591Z,1017.42
2023-04-06T11:43:28.594Z,1017.41
2023-04-06T11:44:28.604Z,1017.32
2023-04-06T11:45:28.610Z,1017.43
2023-04-06T11:46:28.620Z,1017.39
2023-04-06T11:47:28.657Z,1017.40
2023-04-06T11:48:28.622Z,1017.45
2023-04-06T11:49:28.605Z,1017.37
2023-04-06T11:50:28.612Z,1017.45
2023-04-06T11:51:28.612Z,1017.45
2023-04-06T11:52:28.610Z,1017.45
2023-04-06T11:53:28.606Z,1017.46
2023-04-06T11:55:28.921Z,1017.44
2023-04-06T11:56:28.603Z,1017.51
2023-04-06T11:57:28.613Z,1017.56
2023-04-06T11:58:28.613Z,1017.51
2023-04-06T11:59:28.665Z,1017.48
2023-04-06T12:00:28.639Z,1017.52
2023-04-06T12:01:28.649Z,1017.37
2023-04-06T12:02:28.653Z,1017.45
2023-04-06T12:03:28.772Z,1017.39
2023-04-06T12:04:28.638Z,1017.33
2023-04-06T12:05:28.621Z,1017.32
2023-04-06T12:06:28.629Z,1017.24
2023-04-06T12:07:28.620Z,1017.24